Private Wetterstation Sandau
Wetterdaten: Woche 15.10.12 - 21.10.12 (KW42)
Datum Zeit Temp. A. Feuchte A. Luftdruck Regen Wind Richtung Taupunkt Windchill
15.10.2012 00:00 7,6 C 87 % 1001,1 hPa 1,0 l/m 1,8 km/h (1 Bft) O-SO 5,6 C 7,6 C
15.10.2012 01:00 7,3 C 89 % 1000,3 hPa 0,5 l/m 2,2 km/h (1 Bft) NO 5,7 C 7,3 C
15.10.2012 02:00 7,3 C 90 % 1000,1 hPa 2,1 l/m 1,6 km/h (1 Bft) O-NO 5,8 C 7,2 C
15.10.2012 03:00 7,4 C 89 % 998,9 hPa 0,0 l/m 6,1 km/h (2 Bft) O-NO 5,7 C 6,5 C
15.10.2012 04:00 7,2 C 90 % 998,5 hPa 0,0 l/m 5,9 km/h (2 Bft) O-SO 5,6 C 6,4 C
15.10.2012 05:00 7,2 C 90 % 998,2 hPa 0,0 l/m 4,6 km/h (1 Bft) O-SO 5,7 C 6,7 C
15.10.2012 06:00 7,3 C 91 % 997,9 hPa 0,0 l/m 3,1 km/h (1 Bft) O-SO 5,9 C 7,1 C
15.10.2012 07:00 7,4 C 91 % 998,1 hPa 0,0 l/m 3,3 km/h (1 Bft) SO 6,0 C 7,2 C
15.10.2012 08:00 7,5 C 92 % 998,5 hPa 0,0 l/m 0,5 km/h (0 Bft) O-SO 6,3 C 7,5 C
15.10.2012 09:00 8,0 C 92 % 998,9 hPa 0,0 l/m 0,6 km/h (0 Bft) SO 6,8 C 8,0 C
15.10.2012 10:00 9,0 C 91 % 999,8 hPa 0,0 l/m 3,2 km/h (1 Bft) W-SW 7,6 C 8,7 C
15.10.2012 11:00 9,1 C 90 % 1000,6 hPa 0,0 l/m 9,5 km/h (2 Bft) W-SW 7,5 C 7,8 C
15.10.2012 12:00 9,3 C 88 % 1001,6 hPa 0,0 l/m 8,3 km/h (2 Bft) W 7,5 C 8,3 C
15.10.2012 13:00 9,4 C 87 % 1002,5 hPa 0,0 l/m 9,7 km/h (2 Bft) W-SW 7,3 C 8,1 C
15.10.2012 14:00 9,7 C 85 % 1003,6 hPa 0,0 l/m 11,5 km/h (2 Bft) W-SW 7,3 C 8,1 C
15.10.2012 15:00 9,9 C 85 % 1004,4 hPa 0,0 l/m 14,8 km/h (3 Bft) W-SW 7,5 C 8,5 C
15.10.2012 16:00 10,2 C 84 % 1005,2 hPa 0,0 l/m 12,1 km/h (2 Bft) W-SW 7,6 C 10,0 C
15.10.2012 17:00 9,9 C 85 % 1006,1 hPa 0,0 l/m 9,1 km/h (2 Bft) W-SW 7,5 C 9,0 C
15.10.2012 18:00 9,7 C 85 % 1007,0 hPa 0,0 l/m 8,1 km/h (2 Bft) W-SW 7,3 C 8,7 C
15.10.2012 19:00 9,3 C 84 % 1007,9 hPa 0,0 l/m 9,6 km/h (2 Bft) SW 6,8 C 8,0 C
15.10.2012 20:00 8,9 C 84 % 1008,7 hPa 0,0 l/m 8,9 km/h (2 Bft) SW 6,4 C 7,6 C
15.10.2012 21:00 7,8 C 86 % 1009,3 hPa 0,0 l/m 7,1 km/h (2 Bft) SW 5,6 C 6,7 C
15.10.2012 22:00 7,0 C 87 % 1010,1 hPa 0,0 l/m 4,6 km/h (1 Bft) S-SW 5,0 C 6,5 C
15.10.2012 23:00 6,1 C 88 % 1010,4 hPa 0,0 l/m 5,5 km/h (1 Bft) S-SW 4,3 C 5,2 C
16.10.2012 00:00 5,5 C 89 % 1010,6 hPa 0,0 l/m 4,4 km/h (1 Bft) S 3,8 C 5,0 C
16.10.2012 01:00 4,9 C 89 % 1010,9 hPa 0,0 l/m 2,9 km/h (1 Bft) S-SO 3,3 C 4,5 C
16.10.2012 02:00 4,5 C 90 % 1010,8 hPa 0,0 l/m 5,8 km/h (2 Bft) S-SW 3,0 C 3,6 C
16.10.2012 03:00 4,4 C 91 % 1010,7 hPa 0,0 l/m 6,3 km/h (2 Bft) S-SW 3,1 C 3,0 C
16.10.2012 04:00 4,5 C 91 % 1010,8 hPa 0,0 l/m 6,0 km/h (2 Bft) S 3,1 C 3,3 C
16.10.2012 05:00 4,3 C 91 % 1010,8 hPa 0,0 l/m 6,4 km/h (2 Bft) S 3,0 C 3,0 C
16.10.2012 06:00 4,2 C 92 % 1010,6 hPa 0,0 l/m 7,5 km/h (2 Bft) S-SW 3,0 C 2,7 C
16.10.2012 07:00 4,3 C 92 % 1010,5 hPa 0,0 l/m 4,1 km/h (1 Bft) SO 3,2 C 3,9 C
16.10.2012 08:00 4,7 C 92 % 1010,7 hPa 0,0 l/m 5,4 km/h (1 Bft) S 3,5 C 3,8 C
16.10.2012 09:00 5,4 C 91 % 1010,7 hPa 0,0 l/m 6,0 km/h (2 Bft) S-SO 4,1 C 4,4 C
16.10.2012 10:00 7,1 C 90 % 1010,6 hPa 0,0 l/m 9,0 km/h (2 Bft) S 5,5 C 5,5 C
16.10.2012 11:00 8,7 C 86 % 1010,5 hPa 0,0 l/m 9,8 km/h (2 Bft) S-SW 6,5 C 7,2 C
16.10.2012 12:00 10,3 C 81 % 1010,3 hPa 0,0 l/m 9,0 km/h (2 Bft) S-SW 7,3 C 9,9 C
16.10.2012 13:00 12,0 C 76 % 1010,0 hPa 0,0 l/m 10,9 km/h (2 Bft) S-SO 7,9 C 12,0 C
16.10.2012 14:00 13,5 C 69 % 1009,5 hPa 0,0 l/m 10,1 km/h (2 Bft) S-SO 7,9 C 13,5 C
16.10.2012 15:00 13,2 C 68 % 1009,1 hPa 0,0 l/m 13,0 km/h (3 Bft) S-SW 7,4 C 13,2 C
16.10.2012 16:00 12,6 C 67 % 1008,8 hPa 0,0 l/m 10,7 km/h (2 Bft) S-SW 6,7 C 12,6 C
16.10.2012 17:00 11,4 C 70 % 1008,4 hPa 0,0 l/m 6,2 km/h (2 Bft) S-SO 6,2 C 11,4 C
16.10.2012 18:00 10,8 C 71 % 1008,5 hPa 0,0 l/m 8,3 km/h (2 Bft) S-SW 5,8 C 10,8 C
16.10.2012 19:00 10,2 C 74 % 1008,9 hPa 0,0 l/m 8,0 km/h (2 Bft) S-SW 5,9 C 9,9 C
16.10.2012 20:00 9,7 C 79 % 1009,3 hPa 0,0 l/m 6,0 km/h (2 Bft) S-SW 6,2 C 9,1 C
16.10.2012 21:00 9,4 C 79 % 1009,9 hPa 0,0 l/m 5,6 km/h (1 Bft) S-SW 6,1 C 8,9 C
16.10.2012 22:00 8,9 C 81 % 1010,1 hPa 0,0 l/m 5,7 km/h (1 Bft) S-SW 5,8 C 8,4 C
16.10.2012 23:00 8,9 C 81 % 1010,4 hPa 0,0 l/m 7,0 km/h (2 Bft) W 5,8 C 8,1 C
17.10.2012 00:00 8,3 C 82 % 1011,0 hPa 0,0 l/m 6,5 km/h (2 Bft) SW 5,5 C 7,5 C
17.10.2012 01:00 7,7 C 84 % 1011,6 hPa 0,0 l/m 5,4 km/h (1 Bft) W-SW 5,1 C 7,1 C
17.10.2012 02:00 6,9 C 85 % 1012,1 hPa 0,0 l/m 3,9 km/h (1 Bft) S-SW 4,6 C 6,7 C
17.10.2012 03:00 6,4 C 87 % 1012,2 hPa 0,0 l/m 5,7 km/h (1 Bft) S-SW 4,3 C 5,5 C
17.10.2012 04:00 5,9 C 87 % 1012,6 hPa 0,0 l/m 5,7 km/h (1 Bft) S-SW 4,0 C 4,9 C
17.10.2012 05:00 5,4 C 88 % 1013,0 hPa 0,0 l/m 4,1 km/h (1 Bft) S-SW 3,6 C 4,9 C
17.10.2012 06:00 5,0 C 89 % 1013,6 hPa 0,0 l/m 5,5 km/h (1 Bft) S 3,3 C 4,0 C
17.10.2012 07:00 4,6 C 90 % 1013,2 hPa 0,0 l/m 5,9 km/h (2 Bft) S 3,1 C 3,6 C
17.10.2012 08:00 5,1 C 91 % 1013,6 hPa 0,0 l/m 7,4 km/h (2 Bft) S-SO 3,7 C 3,7 C
17.10.2012 09:00 6,4 C 90 % 1013,8 hPa 0,0 l/m 10,3 km/h (2 Bft) S 5,0 C 4,4 C
17.10.2012 10:00 8,3 C 88 % 1013,9 hPa 0,0 l/m 10,1 km/h (2 Bft) S-SW 6,3 C 6,7 C
17.10.2012 11:00 10,5 C 82 % 1013,9 hPa 0,0 l/m 10,5 km/h (2 Bft) S-SO 7,5 C 10,1 C
17.10.2012 12:00 12,3 C 73 % 1013,5 hPa 0,0 l/m 12,2 km/h (2 Bft) S-SO 7,6 C 12,3 C
17.10.2012 13:00 13,8 C 67 % 1012,9 hPa 0,0 l/m 10,4 km/h (2 Bft) S 7,9 C 13,8 C
17.10.2012 14:00 14,1 C 66 % 1012,5 hPa 0,0 l/m 11,7 km/h (2 Bft) S 8,0 C 14,1 C
17.10.2012 15:00 13,9 C 68 % 1012,3 hPa 0,0 l/m 10,9 km/h (2 Bft) S-SO 8,1 C 13,9 C
17.10.2012 16:00 13,6 C 73 % 1011,8 hPa 0,0 l/m 7,0 km/h (2 Bft) S 8,8 C 13,6 C
17.10.2012 17:00 13,1 C 76 % 1011,4 hPa 0,0 l/m 9,6 km/h (2 Bft) S-SO 8,9 C 13,1 C
17.10.2012 18:00 12,9 C 76 % 1011,3 hPa 0,0 l/m 7,2 km/h (2 Bft) SO 8,8 C 12,9 C
17.10.2012 19:00 12,7 C 77 % 1011,6 hPa 0,0 l/m 4,2 km/h (1 Bft) S-SO 8,8 C 12,7 C
17.10.2012 20:00 12,4 C 78 % 1011,6 hPa 0,0 l/m 2,2 km/h (1 Bft) S 8,8 C 12,4 C
17.10.2012 21:00 12,2 C 80 % 1011,9 hPa 0,0 l/m 2,7 km/h (1 Bft) S 8,8 C 12,2 C
17.10.2012 22:00 12,3 C 80 % 1012,3 hPa 0,0 l/m 5,1 km/h (1 Bft) S-SW 8,9 C 12,3 C
17.10.2012 23:00 12,3 C 80 % 1012,6 hPa 0,0 l/m 4,3 km/h (1 Bft) S-SW 8,9 C 12,3 C
18.10.2012 00:00 12,3 C 79 % 1012,8 hPa 0,0 l/m 2,2 km/h (1 Bft) S-SO 8,8 C 12,3 C
18.10.2012 01:00 12,4 C 80 % 1012,9 hPa 0,0 l/m 4,5 km/h (1 Bft) S-SW 8,9 C 12,4 C
18.10.2012 02:00 12,5 C 79 % 1012,8 hPa 0,0 l/m 3,7 km/h (1 Bft) S-SO 8,9 C 12,5 C
18.10.2012 03:00 12,4 C 78 % 1012,7 hPa 0,0 l/m 4,7 km/h (1 Bft) S-SO 8,6 C 12,4 C
18.10.2012 04:00 11,8 C 78 % 1012,6 hPa 0,0 l/m 4,5 km/h (1 Bft) SO 8,1 C 11,8 C
18.10.2012 05:00 11,2 C 79 % 1012,5 hPa 0,0 l/m 4,3 km/h (1 Bft) SO 7,7 C 11,2 C
18.10.2012 06:00 11,2 C 79 % 1012,5 hPa 0,0 l/m 5,8 km/h (1 Bft) S 7,7 C 11,2 C
18.10.2012 07:00 10,8 C 79 % 1012,9 hPa 0,0 l/m 2,7 km/h (1 Bft) S-SO 7,3 C 10,8 C
18.10.2012 08:00 11,0 C 81 % 1013,3 hPa 0,0 l/m 4,9 km/h (1 Bft) S-SO 7,7 C 11,0 C
18.10.2012 09:00 13,0 C 76 % 1013,6 hPa 0,0 l/m 6,8 km/h (2 Bft) SO 8,9 C 13,0 C
18.10.2012 10:00 14,6 C 72 % 1013,6 hPa 0,0 l/m 6,6 km/h (2 Bft) S-SO 9,6 C 14,6 C
18.10.2012 11:00 16,4 C 68 % 1013,5 hPa 0,0 l/m 8,9 km/h (2 Bft) S-SO 10,4 C 16,4 C
18.10.2012 12:00 18,2 C 62 % 1013,4 hPa 0,0 l/m 7,9 km/h (2 Bft) S-SO 10,8 C 18,2 C
18.10.2012 13:00 18,8 C 60 % 1013,3 hPa 0,0 l/m 9,8 km/h (2 Bft) S 10,9 C 18,8 C
18.10.2012 14:00 19,7 C 57 % 1012,8 hPa 0,0 l/m 8,8 km/h (2 Bft) S 10,9 C 19,7 C
18.10.2012 15:00 19,8 C 56 % 1012,7 hPa 0,0 l/m 8,8 km/h (2 Bft) S 10,7 C 19,8 C
18.10.2012 16:00 19,8 C 55 % 1012,8 hPa 0,0 l/m 6,4 km/h (2 Bft) S 10,5 C 19,8 C
18.10.2012 17:00 18,1 C 60 % 1013,0 hPa 0,0 l/m 5,0 km/h (1 Bft) S-SO 10,2 C 18,1 C
18.10.2012 18:00 15,6 C 69 % 1013,3 hPa 0,0 l/m 4,1 km/h (1 Bft) S-SO 9,8 C 15,6 C
18.10.2012 19:00 14,9 C 73 % 1013,4 hPa 0,0 l/m 7,8 km/h (2 Bft) S-SO 10,0 C 14,9 C
18.10.2012 20:00 14,7 C 73 % 1013,8 hPa 0,0 l/m 6,2 km/h (2 Bft) S-SO 10,0 C 14,7 C
18.10.2012 21:00 13,9 C 76 % 1014,3 hPa 0,0 l/m 3,8 km/h (1 Bft) SO 9,6 C 13,9 C
18.10.2012 22:00 12,9 C 79 % 1014,7 hPa 0,0 l/m 4,7 km/h (1 Bft) S-SW 9,2 C 12,9 C
18.10.2012 23:00 12,3 C 80 % 1014,7 hPa 0,0 l/m 4,1 km/h (1 Bft) S-SO 8,9 C 12,3 C
19.10.2012 00:00 11,6 C 81 % 1014,9 hPa 0,0 l/m 3,8 km/h (1 Bft) SO 8,4 C 11,6 C
19.10.2012 01:00 10,6 C 82 % 1015,0 hPa 0,0 l/m 1,1 km/h (1 Bft) O-SO 7,6 C 10,6 C
19.10.2012 02:00 9,7 C 85 % 1014,9 hPa 0,0 l/m 1,2 km/h (1 Bft) O-SO 7,3 C 9,7 C
19.10.2012 03:00 9,1 C 86 % 1014,9 hPa 0,0 l/m 0,5 km/h (0 Bft) O-SO 6,9 C 9,1 C
19.10.2012 04:00 8,5 C 88 % 1014,7 hPa 0,0 l/m 2,0 km/h (1 Bft) SO 6,6 C 8,5 C
19.10.2012 05:00 8,4 C 89 % 1015,0 hPa 0,0 l/m 1,7 km/h (1 Bft) SO 6,6 C 8,2 C
19.10.2012 06:00 9,0 C 88 % 1014,6 hPa 0,0 l/m 2,8 km/h (1 Bft) SO 7,2 C 9,0 C
19.10.2012 07:00 8,5 C 89 % 1014,6 hPa 0,0 l/m 3,3 km/h (1 Bft) O-SO 6,7 C 8,3 C
19.10.2012 08:00 8,6 C 89 % 1015,1 hPa 0,0 l/m 3,0 km/h (1 Bft) O-SO 6,9 C 8,4 C
19.10.2012 09:00 10,0 C 88 % 1015,4 hPa 0,0 l/m 4,5 km/h (1 Bft) SO 8,1 C 9,8 C
19.10.2012 10:00 12,1 C 85 % 1015,6 hPa 0,0 l/m 3,0 km/h (1 Bft) S-SO 9,7 C 12,1 C
19.10.2012 11:00 15,0 C 78 % 1015,2 hPa 0,0 l/m 4,6 km/h (1 Bft) SO 11,1 C 15,0 C
19.10.2012 12:00 17,0 C 72 % 1015,0 hPa 0,0 l/m 5,2 km/h (1 Bft) SO 11,9 C 17,0 C
19.10.2012 13:00 18,9 C 67 % 1014,8 hPa 0,0 l/m 4,4 km/h (1 Bft) SO 12,7 C 18,9 C
19.10.2012 14:00 20,9 C 62 % 1014,5 hPa 0,0 l/m 3,9 km/h (1 Bft) SO 13,3 C 20,9 C
19.10.2012 15:00 21,3 C 60 % 1014,1 hPa 0,0 l/m 4,9 km/h (1 Bft) SO 13,2 C 21,3 C
19.10.2012 16:00 21,2 C 62 % 1013,9 hPa 0,0 l/m 4,7 km/h (1 Bft) SO 13,7 C 21,2 C
19.10.2012 17:00 19,4 C 67 % 1013,9 hPa 0,0 l/m 3,5 km/h (1 Bft) SO 13,1 C 19,4 C
19.10.2012 18:00 17,1 C 71 % 1014,5 hPa 0,0 l/m 1,4 km/h (1 Bft) S-SO 11,8 C 17,1 C
19.10.2012 19:00 14,9 C 78 % 1014,7 hPa 0,0 l/m 0,3 km/h (0 Bft) SO 11,0 C 14,9 C
19.10.2012 20:00 13,8 C 82 % 1015,0 hPa 0,0 l/m 1,3 km/h (1 Bft) SO 10,7 C 13,8 C
19.10.2012 21:00 13,3 C 84 % 1015,3 hPa 0,0 l/m 1,3 km/h (1 Bft) O-SO 10,6 C 13,3 C
19.10.2012 22:00 12,7 C 85 % 1015,4 hPa 0,0 l/m 0,7 km/h (0 Bft) O-SO 10,2 C 12,7 C
19.10.2012 23:00 12,0 C 87 % 1015,4 hPa 0,0 l/m 1,5 km/h (1 Bft) SO 10,0 C 12,0 C
20.10.2012 00:00 11,5 C 89 % 1015,5 hPa 0,0 l/m 0,3 km/h (0 Bft) O-SO 9,7 C 11,5 C
20.10.2012 01:00 11,0 C 89 % 1015,7 hPa 0,0 l/m 0,2 km/h (0 Bft) SO 9,3 C 11,0 C
20.10.2012 02:00 10,5 C 90 % 1016,0 hPa 0,0 l/m 0,4 km/h (0 Bft) SO 8,9 C 10,5 C
20.10.2012 03:00 10,0 C 90 % 1015,9 hPa 0,0 l/m 0,0 km/h (0 Bft) N 8,5 C 10,0 C
20.10.2012 04:00 9,7 C 91 % 1016,0 hPa 0,0 l/m 0,3 km/h (0 Bft) SO 8,3 C 9,7 C
20.10.2012 05:00 9,5 C 92 % 1016,1 hPa 0,0 l/m 0,9 km/h (0 Bft) O-SO 8,3 C 9,5 C
20.10.2012 06:00 9,3 C 92 % 1016,3 hPa 0,0 l/m 2,0 km/h (1 Bft) SO 8,0 C 9,2 C
20.10.2012 07:00 8,7 C 92 % 1016,4 hPa 0,0 l/m 0,2 km/h (0 Bft) SO 7,4 C 8,7 C
20.10.2012 08:00 8,7 C 92 % 1017,2 hPa 0,0 l/m 1,3 km/h (1 Bft) S-SO 7,5 C 8,7 C
20.10.2012 09:00 10,1 C 93 % 1017,9 hPa 0,0 l/m 1,4 km/h (1 Bft) SO 9,0 C 10,1 C
20.10.2012 10:00 12,6 C 91 % 1018,4 hPa 0,0 l/m 2,5 km/h (1 Bft) S-SO 11,2 C 12,6 C
20.10.2012 11:00 15,1 C 84 % 1018,6 hPa 0,0 l/m 3,3 km/h (1 Bft) S-SW 12,4 C 15,1 C
20.10.2012 12:00 17,9 C 73 % 1018,5 hPa 0,0 l/m 4,3 km/h (1 Bft) S-SO 13,0 C 17,9 C
20.10.2012 13:00 19,9 C 66 % 1018,3 hPa 0,0 l/m 3,8 km/h (1 Bft) S-SW 13,3 C 19,9 C
20.10.2012 14:00 21,3 C 62 % 1018,0 hPa 0,0 l/m 4,2 km/h (1 Bft) S 13,8 C 21,3 C
20.10.2012 15:00 21,9 C 61 % 1018,3 hPa 0,0 l/m 4,3 km/h (1 Bft) W 14,0 C 21,9 C
20.10.2012 16:00 22,0 C 62 % 1018,2 hPa 0,0 l/m 0,2 km/h (0 Bft) W 14,3 C 22,0 C
20.10.2012 17:00 20,4 C 67 % 1018,5 hPa 0,0 l/m 0,1 km/h (0 Bft) W 14,1 C 20,4 C
20.10.2012 18:00 17,3 C 76 % 1019,0 hPa 0,0 l/m 0,0 km/h (0 Bft) N 13,1 C 17,3 C
20.10.2012 19:00 15,5 C 82 % 1019,1 hPa 0,0 l/m 0,0 km/h (0 Bft) N 12,4 C 15,5 C
20.10.2012 20:00 14,4 C 85 % 1019,2 hPa 0,0 l/m 0,1 km/h (0 Bft) N-NW 11,9 C 14,4 C
20.10.2012 21:00 13,5 C 87 % 1019,4 hPa 0,0 l/m 0,1 km/h (0 Bft) N-NW 11,3 C 13,5 C
20.10.2012 22:00 12,9 C 88 % 1019,5 hPa 0,0 l/m 0,0 km/h (0 Bft) N 11,0 C 12,9 C
20.10.2012 23:00 12,4 C 89 % 1019,4 hPa 0,0 l/m 0,0 km/h (0 Bft) N 10,6 C 12,4 C
21.10.2012 00:00 11,8 C 89 % 1019,3 hPa 0,0 l/m 0,0 km/h (0 Bft) N 10,1 C 11,8 C
21.10.2012 01:00 11,4 C 90 % 1019,4 hPa 0,0 l/m 0,2 km/h (0 Bft) O-SO 9,8 C 11,4 C
21.10.2012 02:00 11,2 C 91 % 1019,8 hPa 0,0 l/m 0,4 km/h (0 Bft) O-SO 9,8 C 11,2 C
21.10.2012 03:00 11,1 C 91 % 1019,8 hPa 0,0 l/m 1,7 km/h (1 Bft) NO 9,8 C 11,1 C
21.10.2012 04:00 12,0 C 93 % 1019,8 hPa 0,0 l/m 1,6 km/h (1 Bft) O-SO 10,9 C 12,0 C
21.10.2012 05:00 11,9 C 93 % 1019,8 hPa 0,0 l/m 2,5 km/h (1 Bft) O-SO 10,8 C 11,9 C
21.10.2012 06:00 11,7 C 94 % 1019,5 hPa 0,0 l/m 2,9 km/h (1 Bft) O-SO 10,7 C 11,7 C
21.10.2012 07:00 11,3 C 94 % 1019,6 hPa 0,0 l/m 1,2 km/h (1 Bft) O-SO 10,3 C 11,3 C
21.10.2012 08:00 10,9 C 93 % 1019,9 hPa 0,0 l/m 1,4 km/h (1 Bft) O-SO 9,8 C 10,9 C
21.10.2012 09:00 11,9 C 94 % 1020,6 hPa 0,0 l/m 2,9 km/h (1 Bft) SO 11,0 C 11,9 C
21.10.2012 10:00 12,8 C 94 % 1020,9 hPa 0,0 l/m 3,0 km/h (1 Bft) O-SO 11,9 C 12,8 C
21.10.2012 11:00 14,3 C 93 % 1020,8 hPa 0,0 l/m 2,8 km/h (1 Bft) SO 13,2 C 14,3 C
21.10.2012 12:00 16,4 C 89 % 1020,5 hPa 0,0 l/m 4,9 km/h (1 Bft) SO 14,4 C 16,4 C
21.10.2012 13:00 17,9 C 82 % 1020,4 hPa 0,0 l/m 4,3 km/h (1 Bft) SO 14,9 C 17,9 C
21.10.2012 14:00 19,3 C 77 % 1020,2 hPa 0,0 l/m 2,1 km/h (1 Bft) SO 15,2 C 19,3 C
21.10.2012 15:00 19,8 C 75 % 1020,0 hPa 0,0 l/m 3,4 km/h (1 Bft) NO 15,2 C 19,8 C
21.10.2012 16:00 19,5 C 75 % 1020,0 hPa 0,0 l/m 3,7 km/h (1 Bft) O-SO 14,9 C 19,5 C
21.10.2012 17:00 18,2 C 79 % 1020,2 hPa 0,0 l/m 1,8 km/h (1 Bft) O-NO 14,6 C 18,2 C
21.10.2012 18:00 16,5 C 84 % 1020,6 hPa 0,0 l/m 1,1 km/h (1 Bft) O-NO 13,9 C 16,5 C
21.10.2012 19:00 15,4 C 87 % 1021,1 hPa 0,0 l/m 2,8 km/h (1 Bft) O-NO 13,3 C 15,4 C
21.10.2012 20:00 14,8 C 89 % 1021,3 hPa 0,0 l/m 4,4 km/h (1 Bft) O-NO 13,0 C 14,8 C
21.10.2012 21:00 14,3 C 90 % 1021,9 hPa 0,0 l/m 4,1 km/h (1 Bft) O-NO 12,6 C 14,3 C
21.10.2012 22:00 14,0 C 91 % 1022,6 hPa 0,0 l/m 5,1 km/h (1 Bft) O-NO 12,6 C 14,0 C
21.10.2012 23:00 13,8 C 91 % 1022,8 hPa 0,0 l/m 10,1 km/h (2 Bft) O-SO 12,4 C 13,8 C
Min-Datum _ 16.10.12 18.10.12 15.10.12 - 15.10.12 - 16.10.12 16.10.12
_ Min-Zeit 06:16 16:01 06:31 - 00:21 - 06:16 06:46
Minimum _ 4,2 C 54 % 997,6 hPa - 0,0 km/h (0 Bft) - 2,9 C 0,7 C
Max-Datum _ 20.10.12 21.10.12 21.10.12 15.10.12 15.10.12 - 21.10.12 20.10.12
_ Max-Zeit 15:51 06:26 23:56 02:01 15:51 - 14:56 15:51
Maximum _ 22,4 C 94 % 1022,9 hPa 2,1 l/m 33,5 km/h
W-SW (5 Bft)
- 15,5 C 22,4 C
Durchschnitt _ 11,8 C 82 % 1013,1 hPa #3,6 l/m 4,7 km/h (1 Bft) SO 8,6 C 11,5 C
(c) by David Heller